ΕΜΥ, Εθνική Μετεωρολογική Υπηρεσία - Δελτία Καιρού, Προγνώσεις

ΑΕΡΟΝΑΥΤΙΛΙΑ

GREEK AIRPORTS CODES

LGSY 182220Z AUTO 02008KT //// // ////// 17/12 Q1024 RE//=

EUROPEAN AIRPORTS CODES

LFPO 182100Z 17007KT 9999 -RA FEW016 BKN048 15/14 Q1021 NOSIG=